createdAt,value
2022-12-12T00:01:49.809Z,98750.26
2022-12-12T00:04:22.009Z,98750.75
2022-12-12T00:06:54.150Z,98746.42
2022-12-12T00:09:26.286Z,98745.00
2022-12-12T00:11:58.451Z,98743.02
2022-12-12T00:14:31.259Z,98745.89
2022-12-12T00:17:03.505Z,98744.88
2022-12-12T00:19:36.109Z,98742.18
2022-12-12T00:22:08.634Z,98736.52
2022-12-12T00:24:40.747Z,98733.89
2022-12-12T00:27:12.920Z,98731.77
2022-12-12T00:29:45.114Z,98729.44
2022-12-12T00:32:17.285Z,98723.23
2022-12-12T00:34:49.810Z,98722.63
2022-12-12T00:37:21.927Z,98718.23
2022-12-12T00:39:54.199Z,98715.11
2022-12-12T00:42:27.405Z,98713.71
2022-12-12T00:45:00.248Z,98716.88
2022-12-12T00:47:32.498Z,98713.70
2022-12-12T00:50:04.995Z,98715.55
2022-12-12T00:52:37.191Z,98712.36
2022-12-12T00:55:12.938Z,98710.77
2022-12-12T00:57:45.367Z,98709.65
2022-12-12T01:00:21.347Z,98709.80
2022-12-12T01:02:53.559Z,98712.89
2022-12-12T01:05:26.632Z,98711.41
2022-12-12T01:07:59.034Z,98708.06
2022-12-12T01:10:31.309Z,98704.23
2022-12-12T01:13:03.495Z,98705.75
2022-12-12T01:15:35.793Z,98705.45
2022-12-12T01:18:08.087Z,98700.06
2022-12-12T01:20:40.283Z,98698.11
2022-12-12T01:23:12.475Z,98698.43
2022-12-12T01:25:45.130Z,98694.74
2022-12-12T01:28:17.703Z,98693.11
2022-12-12T01:30:49.952Z,98690.38
2022-12-12T01:33:22.172Z,98684.49
2022-12-12T01:35:54.579Z,98680.23
2022-12-12T01:38:27.174Z,98681.86
2022-12-12T01:40:59.315Z,98680.91
2022-12-12T01:43:32.200Z,98676.30
2022-12-12T01:46:37.640Z,98674.42
2022-12-12T01:49:17.858Z,98668.75
2022-12-12T01:51:53.711Z,98667.23
2022-12-12T01:54:29.169Z,98664.35
2022-12-12T01:57:05.600Z,98658.18
2022-12-12T01:59:40.331Z,98650.88
2022-12-12T02:02:13.121Z,98647.48
2022-12-12T02:04:46.095Z,98647.29
2022-12-12T02:07:19.236Z,98647.70
2022-12-12T02:09:52.227Z,98641.74
2022-12-12T02:12:24.368Z,98647.65
2022-12-12T02:14:56.973Z,98643.63
2022-12-12T02:17:44.065Z,98646.98
2022-12-12T02:20:58.162Z,98642.20
2022-12-12T02:24:03.518Z,98633.69
2022-12-12T02:27:02.613Z,98634.48
2022-12-12T02:30:23.091Z,98635.99
2022-12-12T02:33:22.189Z,98633.39
2022-12-12T02:36:08.540Z,98628.59
2022-12-12T02:38:52.510Z,98627.48
2022-12-12T02:41:32.924Z,98632.48
2022-12-12T02:44:15.327Z,98628.82
2022-12-12T02:46:54.593Z,98623.67
2022-12-12T02:49:30.521Z,98620.73
2022-12-12T02:52:04.582Z,98620.59
2022-12-12T02:54:36.778Z,98615.11
2022-12-12T02:57:16.675Z,98610.73
2022-12-12T02:59:53.248Z,98606.52
2022-12-12T03:03:17.718Z,98605.32
2022-12-12T03:06:21.042Z,98606.77
2022-12-12T03:09:03.781Z,98605.46
2022-12-12T03:11:49.416Z,98609.41
2022-12-12T03:14:28.241Z,98606.26
2022-12-12T03:17:10.266Z,98606.91
2022-12-12T03:19:48.039Z,98602.61
2022-12-12T03:22:29.124Z,98607.02
2022-12-12T03:25:06.612Z,98606.56
2022-12-12T03:27:43.540Z,98603.84
2022-12-12T03:30:18.632Z,98605.92
2022-12-12T03:32:57.297Z,98605.05
2022-12-12T03:35:34.843Z,98601.13
2022-12-12T03:38:13.205Z,98601.67
2022-12-12T03:40:51.646Z,98602.02
2022-12-12T03:43:27.245Z,98608.39
2022-12-12T03:46:07.385Z,98606.61
2022-12-12T03:48:44.128Z,98604.05
2022-12-12T03:51:21.208Z,98599.61
2022-12-12T03:54:00.623Z,98600.52
2022-12-12T03:56:35.888Z,98596.23
2022-12-12T03:59:11.971Z,98599.05
2022-12-12T04:01:49.345Z,98600.11
2022-12-12T04:04:28.881Z,98599.00
2022-12-12T04:07:06.121Z,98592.44
2022-12-12T04:09:56.281Z,98592.24
2022-12-12T04:12:53.640Z,98593.36
2022-12-12T04:15:52.201Z,98591.73
2022-12-12T04:18:43.802Z,98585.19
2022-12-12T04:21:49.377Z,98588.18
2022-12-12T04:24:30.406Z,98586.83
2022-12-12T04:27:06.270Z,98582.05
2022-12-12T04:29:43.469Z,98581.41
2022-12-12T04:32:21.331Z,98578.27
2022-12-12T04:34:59.160Z,98577.61
2022-12-12T04:37:33.902Z,98579.25
2022-12-12T04:40:10.676Z,98578.30
2022-12-12T04:42:47.531Z,98575.77
2022-12-12T04:45:24.670Z,98578.73
2022-12-12T04:47:59.573Z,98579.30
2022-12-12T04:50:33.684Z,98580.14
2022-12-12T04:53:14.926Z,98580.21
2022-12-12T04:55:56.966Z,98576.45
2022-12-12T04:58:29.493Z,98577.34
2022-12-12T05:01:08.720Z,98574.13
2022-12-12T05:03:48.344Z,98576.77
2022-12-12T05:06:25.555Z,98572.66
2022-12-12T05:08:58.852Z,98572.36
2022-12-12T05:11:31.402Z,98572.00
2022-12-12T05:14:03.878Z,98572.42
2022-12-12T05:16:39.834Z,98571.63
2022-12-12T05:19:11.980Z,98573.48
2022-12-12T05:21:44.172Z,98568.65
2022-12-12T05:24:16.373Z,98570.83
2022-12-12T05:26:48.585Z,98568.33
2022-12-12T05:29:20.778Z,98569.46
2022-12-12T05:31:53.511Z,98566.95
2022-12-12T05:34:25.940Z,98568.46
2022-12-12T05:36:58.154Z,98571.38
2022-12-12T05:39:30.323Z,98569.14
2022-12-12T05:42:02.541Z,98566.27
2022-12-12T05:44:34.741Z,98568.94
2022-12-12T05:47:07.347Z,98567.66
2022-12-12T05:49:39.533Z,98570.15
2022-12-12T05:52:11.906Z,98571.91
2022-12-12T05:54:43.936Z,98568.91
2022-12-12T05:57:17.367Z,98572.09
2022-12-12T05:59:49.714Z,98570.86
2022-12-12T06:02:22.029Z,98573.32
2022-12-12T06:04:54.335Z,98572.95
2022-12-12T06:07:26.528Z,98572.98
2022-12-12T06:09:58.798Z,98575.72
2022-12-12T06:12:31.042Z,98572.81
2022-12-12T06:15:03.805Z,98573.92
2022-12-12T06:17:36.173Z,98574.39
2022-12-12T06:20:11.587Z,98572.48
2022-12-12T06:22:45.190Z,98569.16
2022-12-12T06:25:19.341Z,98566.50
2022-12-12T06:27:51.822Z,98562.73
2022-12-12T06:30:24.156Z,98562.02
2022-12-12T06:32:56.504Z,98562.19
2022-12-12T06:35:28.698Z,98561.28
2022-12-12T06:38:00.814Z,98557.11
2022-12-12T06:40:33.206Z,98557.59
2022-12-12T06:43:05.583Z,98561.14
2022-12-12T06:45:37.896Z,98561.08
2022-12-12T06:48:10.560Z,98561.84
2022-12-12T06:50:44.088Z,98568.33
2022-12-12T06:53:16.843Z,98573.73
2022-12-12T06:55:49.267Z,98570.95
2022-12-12T06:58:21.691Z,98564.92
2022-12-12T07:00:55.525Z,98568.95
2022-12-12T07:03:27.931Z,98569.25
2022-12-12T07:06:00.460Z,98569.66
2022-12-12T07:08:33.028Z,98570.96
2022-12-12T07:11:08.934Z,98571.19
2022-12-12T07:13:41.614Z,98568.11
2022-12-12T07:16:14.019Z,98567.16
2022-12-12T07:18:46.667Z,98572.94
2022-12-12T07:21:21.344Z,98567.87
2022-12-12T07:23:53.793Z,98567.65
2022-12-12T07:26:26.805Z,98566.39
2022-12-12T07:28:59.211Z,98569.96
2022-12-12T07:31:31.570Z,98573.15
2022-12-12T07:34:04.106Z,98573.59
2022-12-12T07:36:36.557Z,98578.97
2022-12-12T07:39:08.928Z,98577.34
2022-12-12T07:41:41.332Z,98577.70
2022-12-12T07:44:13.699Z,98582.89
2022-12-12T07:46:46.045Z,98582.08
2022-12-12T07:49:18.495Z,98580.64
2022-12-12T07:51:50.950Z,98582.55
2022-12-12T07:54:23.519Z,98586.29
2022-12-12T07:56:56.002Z,98587.79
2022-12-12T08:00:03.771Z,98586.10
2022-12-12T08:02:44.522Z,98584.91
2022-12-12T08:05:17.642Z,98585.45
2022-12-12T08:07:50.405Z,98584.91
2022-12-12T08:10:22.913Z,98583.02
2022-12-12T08:12:55.477Z,98580.08
2022-12-12T08:15:28.003Z,98583.87
2022-12-12T08:18:00.323Z,98584.80
2022-12-12T08:20:32.720Z,98586.42
2022-12-12T08:23:05.171Z,98586.44
2022-12-12T08:25:38.672Z,98588.86
2022-12-12T08:28:11.709Z,98588.68
2022-12-12T08:30:43.965Z,98587.25
2022-12-12T08:33:16.326Z,98587.64
2022-12-12T08:35:48.915Z,98589.02
2022-12-12T08:38:21.558Z,98588.31
2022-12-12T08:40:53.961Z,98590.32
2022-12-12T08:43:26.285Z,98593.21
2022-12-12T08:46:03.937Z,98591.83
2022-12-12T08:48:36.606Z,98588.52
2022-12-12T08:51:09.311Z,98582.66
2022-12-12T08:53:41.709Z,98581.27
2022-12-12T08:56:14.364Z,98580.20
2022-12-12T08:58:47.557Z,98584.16
2022-12-12T09:01:21.648Z,98580.10
2022-12-12T09:03:55.927Z,98576.55
2022-12-12T09:06:29.107Z,98579.67
2022-12-12T09:09:01.350Z,98574.92
2022-12-12T09:11:33.674Z,98576.11
2022-12-12T09:14:06.071Z,98572.45
2022-12-12T09:16:38.382Z,98574.21
2022-12-12T09:19:11.046Z,98579.33
2022-12-12T09:21:43.523Z,98577.57
2022-12-12T09:24:15.977Z,98577.88
2022-12-12T09:26:48.398Z,98578.98
2022-12-12T09:29:20.847Z,98582.98
2022-12-12T09:31:53.291Z,98584.48
2022-12-12T09:34:25.746Z,98580.87
2022-12-12T09:36:58.171Z,98577.98
2022-12-12T09:39:30.987Z,98579.48
2022-12-12T09:42:12.267Z,98580.63
2022-12-12T09:44:44.842Z,98579.11
2022-12-12T09:47:26.821Z,98580.74
2022-12-12T09:50:05.074Z,98583.14
2022-12-12T09:52:39.139Z,98586.45
2022-12-12T09:55:27.973Z,98588.83
2022-12-12T09:58:05.192Z,98591.52
2022-12-12T10:00:47.344Z,98589.39
2022-12-12T10:03:31.176Z,98588.39
2022-12-12T10:09:17.420Z,98589.73
2022-12-12T10:11:51.316Z,98593.08
2022-12-12T10:14:34.589Z,98589.98
2022-12-12T10:17:12.868Z,98590.91
2022-12-12T10:19:51.003Z,98590.77
2022-12-12T10:22:31.386Z,98590.73
2022-12-12T10:25:09.826Z,98586.77
2022-12-12T10:27:42.201Z,98584.81
2022-12-12T10:30:20.557Z,98583.55
2022-12-12T10:33:09.346Z,98585.77
2022-12-12T10:35:52.675Z,98582.92
2022-12-12T10:38:42.738Z,98580.66
2022-12-12T10:41:27.553Z,98580.10
2022-12-12T10:44:10.732Z,98583.53
2022-12-12T10:46:48.921Z,98583.23
2022-12-12T10:49:25.075Z,98578.35
2022-12-12T10:52:01.699Z,98577.05
2022-12-12T10:54:43.288Z,98578.27
2022-12-12T10:57:21.994Z,98579.73
2022-12-12T10:59:56.536Z,98579.27
2022-12-12T11:02:41.292Z,98579.44
2022-12-12T11:05:21.990Z,98577.18
2022-12-12T11:08:04.978Z,98576.66
2022-12-12T11:10:39.165Z,98576.83
2022-12-12T11:13:18.847Z,98577.52
2022-12-12T11:15:58.813Z,98583.77
2022-12-12T11:18:33.294Z,98580.35
2022-12-12T11:21:11.940Z,98581.41
2022-12-12T11:23:51.945Z,98581.31
2022-12-12T11:26:25.575Z,98575.64
2022-12-12T11:29:03.218Z,98579.26
2022-12-12T11:31:37.096Z,98581.36
2022-12-12T11:34:15.029Z,98580.23
2022-12-12T11:36:47.836Z,98578.35
2022-12-12T11:39:28.580Z,98577.52
2022-12-12T11:42:03.297Z,98572.05
2022-12-12T11:44:38.115Z,98574.35
2022-12-12T11:47:25.105Z,98566.04
2022-12-12T11:49:59.499Z,98568.44
2022-12-12T11:52:33.923Z,98574.00
2022-12-12T11:55:14.413Z,98572.83
2022-12-12T11:58:04.073Z,98571.20
2022-12-12T12:00:46.496Z,98572.59
2022-12-12T12:03:45.035Z,98573.53
2022-12-12T12:06:34.634Z,98575.41
2022-12-12T12:09:23.828Z,98576.38
2022-12-12T12:12:05.903Z,98577.48
2022-12-12T12:15:00.124Z,98584.75
2022-12-12T12:17:46.234Z,98579.84
2022-12-12T12:20:25.752Z,98576.95
2022-12-12T12:23:05.035Z,98576.23
2022-12-12T12:25:50.489Z,98581.53
2022-12-12T12:28:40.860Z,98577.40
2022-12-12T12:31:18.067Z,98574.83
2022-12-12T12:34:05.191Z,98575.95
2022-12-12T12:36:49.032Z,98574.42
2022-12-12T12:39:41.934Z,98574.92
2022-12-12T12:42:29.722Z,98577.51
2022-12-12T12:45:08.620Z,98572.46
2022-12-12T12:47:49.241Z,98572.45
2022-12-12T12:50:24.634Z,98575.31
2022-12-12T12:53:01.638Z,98577.67
2022-12-12T12:55:41.128Z,98582.72
2022-12-12T12:58:19.849Z,98586.95
2022-12-12T13:01:00.849Z,98590.27
2022-12-12T13:03:42.206Z,98589.54
2022-12-12T13:06:19.807Z,98593.49
2022-12-12T13:08:59.703Z,98593.91
2022-12-12T13:11:36.743Z,98591.10
2022-12-12T13:14:21.646Z,98599.14
2022-12-12T13:16:56.560Z,98599.63
2022-12-12T13:19:38.227Z,98601.10
2022-12-12T13:22:17.673Z,98603.95
2022-12-12T13:24:59.846Z,98601.30
2022-12-12T13:27:45.811Z,98605.62
2022-12-12T13:30:23.325Z,98609.24
2022-12-12T13:33:33.573Z,98608.15
2022-12-12T13:36:14.252Z,98614.95
2022-12-12T13:38:52.825Z,98618.64
2022-12-12T13:41:26.093Z,98624.80
2022-12-12T13:44:01.157Z,98626.67
2022-12-12T13:46:42.265Z,98629.11
2022-12-12T13:49:22.952Z,98633.29
2022-12-12T13:52:15.573Z,98633.19
2022-12-12T13:54:49.412Z,98634.60
2022-12-12T13:57:38.957Z,98631.81
2022-12-12T14:00:21.877Z,98630.72
2022-12-12T14:03:07.262Z,98632.85
2022-12-12T14:05:42.609Z,98634.08
2022-12-12T14:08:27.049Z,98636.41
2022-12-12T14:11:03.270Z,98640.74
2022-12-12T14:13:43.153Z,98638.66
2022-12-12T14:16:27.034Z,98639.39
2022-12-12T14:19:07.138Z,98642.14
2022-12-12T14:21:48.691Z,98639.09
2022-12-12T14:24:48.377Z,98647.39
2022-12-12T14:27:41.090Z,98644.94
2022-12-12T14:30:19.635Z,98647.73
2022-12-12T14:32:59.277Z,98650.13
2022-12-12T14:35:39.816Z,98647.52
2022-12-12T14:38:27.926Z,98648.05
2022-12-12T14:41:04.235Z,98648.05
2022-12-12T14:43:41.883Z,98644.00
2022-12-12T14:46:18.699Z,98648.66
2022-12-12T14:49:02.905Z,98651.02
2022-12-12T14:51:37.266Z,98653.21
2022-12-12T14:54:17.885Z,98654.30
2022-12-12T14:56:53.221Z,98661.73
2022-12-12T14:59:30.011Z,98662.20
2022-12-12T15:02:07.828Z,98658.33
2022-12-12T15:04:42.122Z,98663.54
2022-12-12T15:07:26.043Z,98662.62
2022-12-12T15:09:58.796Z,98658.92
2022-12-12T15:12:36.760Z,98658.42
2022-12-12T15:15:27.709Z,98657.23
2022-12-12T15:18:02.159Z,98658.79
2022-12-12T15:20:36.577Z,98661.52
2022-12-12T15:23:09.694Z,98660.38
2022-12-12T15:25:45.062Z,98659.02
2022-12-12T15:28:20.583Z,98659.15
2022-12-12T15:30:55.468Z,98662.11
2022-12-12T15:33:29.146Z,98663.08
2022-12-12T15:36:05.066Z,98668.86
2022-12-12T15:38:37.608Z,98669.09
2022-12-12T15:41:13.745Z,98672.61
2022-12-12T15:43:47.006Z,98674.45
2022-12-12T15:46:20.101Z,98671.15
2022-12-12T15:48:52.597Z,98678.20
2022-12-12T15:51:29.529Z,98675.34
2022-12-12T15:54:08.786Z,98675.58
2022-12-12T15:56:41.084Z,98679.16
2022-12-12T15:59:28.075Z,98680.80
2022-12-12T16:02:13.852Z,98683.29
2022-12-12T16:04:56.900Z,98683.98
2022-12-12T16:07:30.127Z,98688.51
2022-12-12T16:10:05.470Z,98687.84
2022-12-12T16:13:03.265Z,98686.74
2022-12-12T16:15:38.326Z,98695.31
2022-12-12T16:18:21.098Z,98697.41
2022-12-12T16:20:56.392Z,98701.13
2022-12-12T16:23:30.759Z,98702.59
2022-12-12T16:26:03.103Z,98709.96
2022-12-12T16:28:35.448Z,98705.77
2022-12-12T16:31:15.083Z,98708.66
2022-12-12T16:33:47.645Z,98715.21
2022-12-12T16:36:20.042Z,98714.73
2022-12-12T16:38:52.980Z,98712.90
2022-12-12T16:41:25.425Z,98710.41
2022-12-12T16:43:58.009Z,98715.96
2022-12-12T16:46:30.354Z,98717.59
2022-12-12T16:49:04.850Z,98721.29
2022-12-12T16:51:41.065Z,98727.04
2022-12-12T16:54:18.280Z,98723.71
2022-12-12T16:56:52.779Z,98726.47
2022-12-12T16:59:25.437Z,98725.34
2022-12-12T17:01:57.879Z,98724.90
2022-12-12T17:04:31.904Z,98727.08
2022-12-12T17:07:08.091Z,98730.39
2022-12-12T17:09:40.524Z,98734.88
2022-12-12T17:12:13.538Z,98734.98
2022-12-12T17:14:45.887Z,98734.40
2022-12-12T17:17:18.389Z,98736.66
2022-12-12T17:19:50.709Z,98739.45
2022-12-12T17:22:23.237Z,98747.25
2022-12-12T17:24:55.917Z,98745.95
2022-12-12T17:27:28.267Z,98746.11
2022-12-12T17:30:00.648Z,98749.74
2022-12-12T17:32:33.087Z,98750.83
2022-12-12T17:35:07.918Z,98751.29
2022-12-12T17:37:40.445Z,98751.17
2022-12-12T17:40:14.628Z,98757.55
2022-12-12T17:42:47.162Z,98754.02
2022-12-12T17:45:19.615Z,98757.04
2022-12-12T17:47:52.471Z,98761.78
2022-12-12T17:50:24.869Z,98764.62
2022-12-12T17:52:57.230Z,98763.48
2022-12-12T17:55:54.170Z,98765.85
2022-12-12T17:58:27.980Z,98770.44
2022-12-12T18:01:01.980Z,98772.70
2022-12-12T18:03:35.464Z,98775.98
2022-12-12T18:06:08.493Z,98779.46
2022-12-12T18:08:42.330Z,98781.02
2022-12-12T18:11:16.191Z,98783.41
2022-12-12T18:13:49.736Z,98781.19
2022-12-12T18:16:23.840Z,98782.16
2022-12-12T18:18:57.532Z,98776.06
2022-12-12T18:24:29.494Z,98782.60
2022-12-12T18:27:03.643Z,98788.79
2022-12-12T18:29:36.026Z,98793.43
2022-12-12T18:32:08.605Z,98799.63
2022-12-12T18:34:42.363Z,98799.20
2022-12-12T18:37:15.113Z,98798.54
2022-12-12T18:39:47.529Z,98798.45
2022-12-12T18:42:19.941Z,98804.38
2022-12-12T18:44:52.266Z,98806.91
2022-12-12T18:47:24.612Z,98803.63
2022-12-12T18:49:56.844Z,98804.52
2022-12-12T18:52:29.171Z,98809.23
2022-12-12T18:55:02.010Z,98812.67
2022-12-12T18:57:34.715Z,98818.23
2022-12-12T19:00:09.008Z,98818.30
2022-12-12T19:02:41.460Z,98827.66
2022-12-12T19:05:14.578Z,98832.42
2022-12-12T19:07:48.064Z,98831.14
2022-12-12T19:10:20.832Z,98832.48
2022-12-12T19:12:53.254Z,98835.48
2022-12-12T19:15:25.552Z,98836.80
2022-12-12T19:17:59.106Z,98838.23
2022-12-12T19:20:31.476Z,98839.86
2022-12-12T19:23:04.080Z,98832.83
2022-12-12T19:25:42.560Z,98836.93
2022-12-12T19:28:15.661Z,98844.70
2022-12-12T19:30:47.971Z,98843.64
2022-12-12T19:33:20.674Z,98848.16
2022-12-12T19:35:53.136Z,98850.06
2022-12-12T19:38:25.638Z,98851.94
2022-12-12T19:40:58.070Z,98853.98
2022-12-12T19:43:33.007Z,98854.39
2022-12-12T19:46:08.269Z,98858.11
2022-12-12T19:48:41.043Z,98855.08
2022-12-12T19:51:15.311Z,98858.48
2022-12-12T19:53:50.103Z,98862.47
2022-12-12T19:56:24.028Z,98868.43
2022-12-12T19:58:58.677Z,98870.27
2022-12-12T20:01:33.071Z,98874.71
2022-12-12T20:04:07.723Z,98878.27
2022-12-12T20:06:45.397Z,98881.81
2022-12-12T20:09:21.125Z,98882.68
2022-12-12T20:11:54.088Z,98884.31
2022-12-12T20:14:29.043Z,98885.70
2022-12-12T20:17:03.056Z,98892.73
2022-12-12T20:19:35.380Z,98892.79
2022-12-12T20:22:07.830Z,98892.96
2022-12-12T20:24:40.827Z,98899.81
2022-12-12T20:27:15.337Z,98907.27
2022-12-12T20:29:47.915Z,98904.50
2022-12-12T20:32:23.417Z,98906.88
2022-12-12T20:34:56.015Z,98909.73
2022-12-12T20:37:30.692Z,98918.52
2022-12-12T20:40:03.219Z,98922.94
2022-12-12T20:42:35.592Z,98922.60
2022-12-12T20:45:09.599Z,98923.08
2022-12-12T20:47:42.026Z,98926.07
2022-12-12T20:50:14.788Z,98929.82
2022-12-12T20:52:47.775Z,98933.39
2022-12-12T20:55:20.176Z,98931.63
2022-12-12T20:57:52.518Z,98934.20
2022-12-12T21:00:26.683Z,98931.88
2022-12-12T21:02:59.305Z,98935.92
2022-12-12T21:05:32.927Z,98942.46
2022-12-12T21:08:05.418Z,98944.77
2022-12-12T21:10:37.840Z,98948.41
2022-12-12T21:13:10.148Z,98943.30
2022-12-12T21:15:42.791Z,98943.58
2022-12-12T21:18:15.367Z,98950.77
2022-12-12T21:20:48.098Z,98952.63
2022-12-12T21:23:21.034Z,98950.36
2022-12-12T21:25:54.772Z,98960.90
2022-12-12T21:28:27.086Z,98960.65
2022-12-12T21:30:59.745Z,98962.92
2022-12-12T21:33:32.422Z,98970.34
2022-12-12T21:36:07.738Z,98972.48
2022-12-12T21:38:41.341Z,98974.23
2022-12-12T21:41:15.787Z,98976.95
2022-12-12T21:43:48.828Z,98974.89
2022-12-12T21:46:23.019Z,98979.31
2022-12-12T21:49:09.702Z,98982.45
2022-12-12T21:51:42.738Z,98989.77
2022-12-12T21:54:16.140Z,98990.05
2022-12-12T21:56:48.638Z,98993.44
2022-12-12T21:59:20.988Z,98993.85
2022-12-12T22:01:55.120Z,98994.47
2022-12-12T22:04:28.008Z,98998.34
2022-12-12T22:07:00.867Z,99000.91
2022-12-12T22:09:33.306Z,99008.23
2022-12-12T22:12:05.795Z,99008.77
2022-12-12T22:14:38.192Z,99013.63
2022-12-12T22:17:10.490Z,99017.81
2022-12-12T22:19:42.760Z,99015.16
2022-12-12T22:22:15.057Z,99016.62
2022-12-12T22:24:47.455Z,99015.95
2022-12-12T22:27:19.853Z,99015.48
2022-12-12T22:29:52.211Z,99016.50
2022-12-12T22:32:24.602Z,99015.61
2022-12-12T22:34:58.430Z,99015.48
2022-12-12T22:37:31.471Z,99013.66
2022-12-12T22:40:04.129Z,99012.73
2022-12-12T22:42:36.586Z,99016.33
2022-12-12T22:45:12.653Z,99019.70
2022-12-12T22:47:45.288Z,99024.36
2022-12-12T22:50:17.815Z,99029.33
2022-12-12T22:52:50.350Z,99030.75
2022-12-12T22:55:23.124Z,99030.98
2022-12-12T22:57:55.445Z,99034.64
2022-12-12T23:00:28.459Z,99033.99
2022-12-12T23:03:01.189Z,99041.33
2022-12-12T23:05:33.820Z,99043.20
2022-12-12T23:08:07.135Z,99046.54
2022-12-12T23:10:39.538Z,99049.06
2022-12-12T23:13:12.043Z,99049.58
2022-12-12T23:15:44.590Z,99055.36
2022-12-12T23:18:18.423Z,99051.65
2022-12-12T23:20:50.846Z,99063.13
2022-12-12T23:23:23.709Z,99065.06
2022-12-12T23:25:56.181Z,99068.73
2022-12-12T23:28:29.248Z,99068.81
2022-12-12T23:31:01.877Z,99073.30
2022-12-12T23:33:34.197Z,99074.16
2022-12-12T23:36:08.501Z,99078.39
2022-12-12T23:38:41.273Z,99081.47
2022-12-12T23:41:15.835Z,99082.05
2022-12-12T23:43:48.478Z,99081.77
2022-12-12T23:46:32.069Z,99083.52
2022-12-12T23:49:06.106Z,99086.13
2022-12-12T23:51:41.208Z,99085.66
2022-12-12T23:54:16.068Z,99087.88
2022-12-12T23:56:49.263Z,99086.41
2022-12-12T23:59:22.455Z,99089.95
